New Hampton, New York
Current Conditions -  °F | °C
As of 12:54 AM on Saturday 29 Nov 2014 (Local Time) from KMGJ Reporting Station
Overcast Overcast  
Wind Chill:   Ceiling: 12000
Heat Index: 13°   Visibility: 10mi
Dew Point: 10°   Wind: 7mph
Humidity: 88%   Direction: 220°SW
Pressure: 30.24"   Gusts: NA
Location:  41.41°N, 74.41°W
Report Text: KMGJ 290554Z AUTO 22006KT 10SM OVC120 M11/M12 A3024 RMK AO2 SLP246 I1000 I6000 T11061122 11072 21122 53000 TSNO $
Loading
Personal Weather Stations






























Interactive Weather Map New forecast layout! Learn more

10-Day Weather Forecast

Advertisements
Track Severe Weather on mobile